Terminal Aerodrome Forecast
Issued by NWS Mt. Holly, NJ

Home | Current Version | Previous Version | Text Only | Print | Product List | Glossary On
Versions: 1 2 3 4 5 6 7 8 9 10 11 12 13 14
000
FTUS41 KPHI 191400 AAA
TAFACY
TAF AMD
KACY 191401Z 1914/2012 05015G22KT P6SM OVC025
     FM191600 08015KT P6SM BKN025
     FM192000 09011KT P6SM SCT025
     FM200300 10008KT P6SM BKN040
     FM200900 11004KT P6SM OVC025
      TEMPO 2009/2012 5SM -DZ BR BKN015=

USA.gov is the U.S. government's official web portal to all federal, state and local government web resources and services.